Time;durP1;ratioP1;P1;durP2;ratioP2;P2;SDS_P1;SDS_P2;PMS_P1;PMS_P2;Temp;Humidity;BMP_temperature;BMP_pressure;BME280_temperature;BME280_humidity;BME280_pressure;Samples;Min_cycle;Max_cycle;Signal;HPM_P1;HPM_P2
2022/11/02 00:01:50;;;;;;;41.65;20.48;;;;;;;10.23;71.40;100667.53;5070971;28;20123;-27
2022/11/02 00:04:16;;;;;;;33.03;18.83;;;;;;;10.30;71.46;100657.75;5088931;28;20036;-28
2022/11/02 00:06:42;;;;;;;40.40;20.92;;;;;;;10.17;71.95;100647.03;5088917;28;20052;-29
2022/11/02 00:09:08;;;;;;;39.53;20.38;;;;;;;10.54;69.90;100658.19;5089203;28;20030;-29
2022/11/02 00:11:33;;;;;;;35.30;19.05;;;;;;;10.47;69.90;100630.69;5087602;28;20020;-27
2022/11/02 00:13:59;;;;;;;34.47;20.25;;;;;;;10.62;69.68;100652.66;5088714;28;20020;-26
2022/11/02 00:16:24;;;;;;;33.55;18.52;;;;;;;10.72;69.19;100654.91;5089016;28;20031;-29
2022/11/02 00:18:54;;;;;;;35.97;18.95;;;;;;;10.54;69.94;100643.03;5089006;28;20049;-28
2022/11/02 00:21:21;;;;;;;33.85;18.92;;;;;;;10.39;69.93;100648.53;5070670;28;20032;-28
2022/11/02 00:23:48;;;;;;;44.15;21.63;;;;;;;10.47;69.89;100634.19;5088928;28;20111;-26
2022/11/02 00:26:14;;;;;;;31.92;17.88;;;;;;;10.48;69.55;100627.00;5070830;28;20032;-28
2022/11/02 00:28:39;;;;;;;30.77;15.07;;;;;;;10.05;71.42;100639.63;5070270;28;20131;-27
2022/11/02 00:31:04;;;;;;;33.47;17.70;;;;;;;9.62;72.50;100618.59;5070759;28;20516;-31
2022/11/02 00:33:30;;;;;;;34.60;16.92;;;;;;;9.95;71.15;100633.03;5088697;28;20024;-29
2022/11/02 00:35:56;;;;;;;31.17;15.82;;;;;;;10.23;70.13;100619.56;5088777;28;20145;-28
2022/11/02 00:38:22;;;;;;;27.63;14.93;;;;;;;10.41;69.71;100635.00;5088463;28;20035;-27
2022/11/02 00:40:47;;;;;;;28.48;14.63;;;;;;;10.06;69.67;100587.97;5088254;28;20089;-29
2022/11/02 00:43:12;;;;;;;29.38;16.80;;;;;;;10.14;70.13;100637.59;5088459;28;20103;-28
2022/11/02 00:45:38;;;;;;;28.20;17.08;;;;;;;10.48;67.92;100638.47;5087115;28;20028;-27
2022/11/02 00:48:04;;;;;;;29.08;16.00;;;;;;;10.05;69.08;100636.13;5088638;28;20024;-27
2022/11/02 00:50:30;;;;;;;29.88;17.80;;;;;;;9.77;69.98;100636.25;5088078;28;20085;-28
2022/11/02 00:52:55;;;;;;;32.00;17.30;;;;;;;9.75;70.08;100630.31;5088397;28;20051;-28
2022/11/02 00:55:21;;;;;;;34.35;18.90;;;;;;;9.59;69.81;100634.13;5088052;28;20031;-27
2022/11/02 00:57:46;;;;;;;36.55;18.08;;;;;;;9.59;70.13;100620.81;5088167;28;20031;-27
2022/11/02 01:00:13;;;;;;;32.03;17.48;;;;;;;10.00;68.84;100642.06;5088411;28;20031;-28
2022/11/02 01:02:39;;;;;;;33.75;17.58;;;;;;;9.55;70.23;100628.38;5069430;28;20797;-27
2022/11/02 01:05:06;;;;;;;39.50;17.70;;;;;;;9.17;71.13;100615.47;5088087;28;20066;-29
2022/11/02 01:07:32;;;;;;;35.25;19.40;;;;;;;9.07;71.54;100636.28;5087972;28;20028;-32
2022/11/02 01:09:57;;;;;;;32.22;19.33;;;;;;;8.95;71.08;100621.88;5087985;28;20028;-27
2022/11/02 01:12:23;;;;;;;36.72;19.67;;;;;;;9.09;71.31;100628.13;5087681;28;20393;-28
2022/11/02 01:14:49;;;;;;;37.45;20.63;;;;;;;8.87;72.34;100620.22;5088187;28;20020;-28
2022/11/02 01:17:15;;;;;;;39.53;21.70;;;;;;;9.11;71.00;100608.28;5087992;28;20036;-28
2022/11/02 01:19:40;;;;;;;51.40;26.70;;;;;;;9.23;71.50;100609.41;5069718;28;20488;-29
2022/11/02 01:22:06;;;;;;;46.20;25.10;;;;;;;9.72;70.24;100618.19;5086569;28;20028;-28
2022/11/02 01:24:32;;;;;;;60.03;32.45;;;;;;;9.70;71.56;100614.09;5069119;28;20024;-29
2022/11/02 01:26:57;;;;;;;50.67;24.48;;;;;;;9.16;72.37;100611.19;5087505;28;20024;-26
2022/11/02 01:29:22;;;;;;;44.35;22.13;;;;;;;8.76;73.12;100612.75;5087949;28;20093;-25
2022/11/02 01:31:48;;;;;;;40.65;20.95;;;;;;;9.04;71.71;100613.56;5087824;28;20038;-27
2022/11/02 01:34:14;;;;;;;41.25;20.83;;;;;;;8.81;72.54;100610.38;5087410;28;20031;-25
2022/11/02 01:36:39;;;;;;;46.95;23.90;;;;;;;8.85;72.91;100599.13;5087484;28;20061;-29
2022/11/02 01:39:05;;;;;;;40.78;21.33;;;;;;;8.88;72.40;100610.41;5087362;28;20126;-28
2022/11/02 01:41:30;;;;;;;40.22;21.50;;;;;;;8.73;73.42;100607.84;5087204;28;20036;-27
2022/11/02 01:43:57;;;;;;;42.65;22.85;;;;;;;8.48;73.33;100612.75;5087563;28;20830;-26
2022/11/02 01:46:40;;;;;;;49.20;23.17;;;;;;;8.66;72.15;100589.16;5087135;28;20031;-26
2022/11/02 01:49:13;;;;;;;43.17;23.60;;;;;;;8.90;72.31;100609.19;5087290;28;20032;-25
2022/11/02 01:51:44;;;;;;;46.47;24.65;;;;;;;8.93;73.25;100605.31;5086668;28;20158;-28
2022/11/02 01:54:16;;;;;;;46.45;24.40;;;;;;;9.21;71.51;100595.47;5086945;28;20059;-27
2022/11/02 01:56:46;;;;;;;47.00;24.15;;;;;;;9.32;71.71;100603.91;5087334;28;20092;-26
2022/11/02 01:59:18;;;;;;;47.70;24.08;;;;;;;9.35;72.21;100622.13;5087360;28;20123;-25
2022/11/02 02:01:44;;;;;;;47.75;25.35;;;;;;;9.54;70.89;100594.81;5087508;28;20145;-27
2022/11/02 02:04:11;;;;;;;46.97;24.58;;;;;;;9.32;71.57;100596.75;5087658;28;20078;-26
2022/11/02 02:06:38;;;;;;;54.50;25.90;;;;;;;9.43;71.53;100604.16;5086733;28;20431;-27
2022/11/02 02:09:06;;;;;;;49.10;22.42;;;;;;;9.86;69.59;100608.41;5087610;28;20449;-28
2022/11/02 02:11:33;;;;;;;;;;;;;;;9.81;69.41;100606.34;5087775;28;20073;-29
2022/11/02 02:14:10;;;;;;;40.55;21.00;;;;;;;9.73;69.69;100603.88;5086976;28;19912;-26
2022/11/02 02:16:36;;;;;;;45.35;24.55;;;;;;;9.77;69.37;100604.31;5068520;28;20039;-29
2022/11/02 02:19:13;;;;;;;40.53;23.85;;;;;;;9.61;70.85;100608.94;5086903;28;20020;-26
2022/11/02 02:22:17;;;;;;;58.38;30.38;;;;;;;9.68;70.89;100610.81;5087127;28;20061;-29
2022/11/02 02:25:07;;;;;;;54.40;27.27;;;;;;;9.70;70.84;100608.78;5085145;28;20043;-25
2022/11/02 02:27:51;;;;;;;42.63;25.27;;;;;;;9.37;71.43;100598.81;5087661;28;20024;-25
2022/11/02 02:30:17;;;;;;;53.22;27.08;;;;;;;9.05;72.17;100585.13;5086726;28;20032;-26
2022/11/02 02:33:04;;;;;;;47.38;25.88;;;;;;;9.21;71.32;100589.31;5068646;28;20027;-27
2022/11/02 02:35:40;;;;;;;45.92;24.52;;;;;;;8.87;72.41;100587.47;5086604;28;20069;-25
2022/11/02 02:38:39;;;;;;;44.05;24.52;;;;;;;8.93;73.01;100595.50;5086845;28;20107;-26
2022/11/02 02:41:21;;;;;;;49.50;26.48;;;;;;;8.71;73.64;100597.41;5057582;28;20123;-26
2022/11/02 02:43:53;;;;;;;45.10;27.13;;;;;;;8.91;72.67;100599.34;5052496;28;20036;-27
2022/11/02 02:46:24;;;;;;;64.70;37.25;;;;;;;8.70;73.74;100598.41;5068331;28;20036;-25
2022/11/02 02:48:54;;;;;;;58.13;32.00;;;;;;;8.54;74.29;100604.84;5086780;28;20032;-27
2022/11/02 02:51:32;;;;;;;116.63;60.78;;;;;;;8.33;76.06;100604.81;5086741;28;20085;-27
2022/11/02 02:54:01;;;;;;;86.28;45.25;;;;;;;8.04;75.61;100586.16;5086514;28;20028;-27
2022/11/02 02:56:37;;;;;;;58.67;30.67;;;;;;;8.37;74.11;100609.56;5086569;28;20066;-26
2022/11/02 02:59:06;;;;;;;66.68;32.85;;;;;;;8.38;72.95;100599.78;5086927;28;20028;-27
2022/11/02 03:01:34;;;;;;;84.22;45.20;;;;;;;8.33;73.46;100589.69;5086822;28;20036;-26
2022/11/02 03:03:59;;;;;;;110.72;58.28;;;;;;;8.56;74.18;100601.97;5087321;28;20069;-27
2022/11/02 03:06:31;;;;;;;125.47;65.13;;;;;;;8.30;76.30;100608.69;5072109;28;20079;-29
2022/11/02 03:09:18;;;;;;;129.82;64.57;;;;;;;8.78;74.96;100606.22;5089828;28;20028;-27
2022/11/02 03:12:15;;;;;;;108.90;57.22;;;;;;;9.03;73.64;100605.78;5090024;28;20092;-25
2022/11/02 03:14:54;;;;;;;83.03;44.53;;;;;;;9.10;72.61;100601.34;5090350;28;20567;-29
2022/11/02 03:17:25;;;;;;;66.47;37.88;;;;;;;9.14;71.93;100583.97;5071388;28;20639;-29
2022/11/02 03:19:59;;;;;;;55.38;31.98;;;;;;;9.09;71.37;100607.66;5090027;28;20020;-25
2022/11/02 03:22:28;;;;;;;55.97;30.50;;;;;;;9.11;71.30;100604.81;5089867;28;20043;-27
2022/11/02 03:25:01;;;;;;;46.47;25.65;;;;;;;8.98;71.11;100582.44;5090333;28;20063;-26
2022/11/02 03:27:29;;;;;;;42.00;22.27;;;;;;;8.79;71.36;100607.06;5071271;28;20036;-26
2022/11/02 03:30:07;;;;;;;;;;;;;;;9.06;69.86;100602.75;5090390;28;20028;-27
2022/11/02 03:32:49;;;;;;;37.42;19.10;;;;;;;8.57;71.52;100587.69;5071086;28;20510;-27
2022/11/02 03:35:23;;;;;;;30.33;17.48;;;;;;;8.97;70.39;100594.09;5071079;28;20149;-26
2022/11/02 03:37:57;;;;;;;38.28;17.98;;;;;;;9.02;70.47;100598.81;5089823;28;20067;-29
2022/11/02 03:40:31;;;;;;;35.83;19.50;;;;;;;8.10;72.62;100570.47;5089529;28;20035;-27
2022/11/02 03:42:59;;;;;;;42.92;21.55;;;;;;;8.44;71.64;100589.22;5089782;28;20067;-26
2022/11/02 03:45:30;;;;;;;41.65;21.15;;;;;;;8.46;71.68;100597.00;5089772;28;20553;-27
2022/11/02 03:48:04;;;;;;;35.60;19.35;;;;;;;8.65;71.42;100595.50;5089508;28;20496;-28
2022/11/02 03:50:33;;;;;;;37.20;18.65;;;;;;;8.45;72.08;100600.66;5087694;28;20116;-29
2022/11/02 03:53:21;;;;;;;35.63;19.17;;;;;;;8.32;72.34;100590.72;5089629;28;20038;-26
2022/11/02 03:55:52;;;;;;;35.17;18.70;;;;;;;8.12;73.16;100573.78;5089439;28;20101;-26
2022/11/02 03:58:18;;;;;;;37.63;19.83;;;;;;;7.73;74.88;100590.94;5089174;28;20051;-25
2022/11/02 04:00:52;;;;;;;43.95;23.38;;;;;;;7.31;74.66;100593.28;5089088;28;20113;-26
2022/11/02 04:03:19;;;;;;;43.50;24.60;;;;;;;7.50;72.97;100591.06;5070816;28;20213;-25
2022/11/02 04:05:45;;;;;;;44.30;24.80;;;;;;;7.42;73.45;100584.06;5088972;28;20131;-26
2022/11/02 04:08:21;;;;;;;42.58;22.58;;;;;;;7.88;72.24;100573.13;5088859;28;20044;-27
2022/11/02 04:16:17;;;;;;;54.08;22.15;;;;;;;8.25;73.12;100580.03;5088157;28;20097;-25
2022/11/02 04:21:28;;;;;;;38.47;21.65;;;;;;;8.02;74.38;100582.88;5089218;28;20066;-25
2022/11/02 04:26:37;;;;;;;38.65;22.67;;;;;;;8.20;75.59;100585.09;5088915;28;20054;-26
2022/11/02 04:29:03;;;;;;;35.80;20.52;;;;;;;7.89;75.95;100568.66;5088086;28;20016;-26
2022/11/02 04:31:28;;;;;;;41.22;25.35;;;;;;;7.99;75.92;100569.97;5087081;28;20032;-25
2022/11/02 04:33:54;;;;;;;39.70;21.60;;;;;;;7.73;76.72;100582.97;5088473;28;20039;-28
2022/11/02 04:36:19;;;;;;;40.72;23.08;;;;;;;7.89;75.36;100558.84;5088187;28;20040;-25
2022/11/02 04:38:45;;;;;;;38.55;21.40;;;;;;;8.04;73.81;100569.41;5088457;28;20649;-25
2022/11/02 04:43:59;;;;;;;36.00;18.23;;;;;;;8.16;73.40;100567.06;5088720;28;20092;-26
2022/11/02 04:46:27;;;;;;;31.60;17.92;;;;;;;8.36;73.76;100581.34;5088336;28;20036;-25
2022/11/02 04:48:53;;;;;;;30.20;17.80;;;;;;;8.15;73.48;100573.38;5070129;28;20026;-25
2022/11/02 04:51:20;;;;;;;32.25;18.63;;;;;;;7.74;74.40;100566.84;5088388;28;20774;-26
2022/11/02 04:53:49;;;;;;;34.85;17.13;;;;;;;7.39;76.33;100571.13;5070030;28;20031;-27
2022/11/02 04:56:15;;;;;;;42.25;18.95;;;;;;;7.29;76.43;100574.06;5088429;28;20032;-28
2022/11/02 04:58:40;;;;;;;86.78;19.23;;;;;;;8.01;74.29;100594.50;5088278;28;20406;-27
2022/11/02 05:01:07;;;;;;;32.15;15.45;;;;;;;7.77;74.93;100571.78;5088118;28;20040;-28
2022/11/02 05:03:34;;;;;;;32.17;16.73;;;;;;;7.24;75.79;100577.28;5087937;28;20032;-28
2022/11/02 05:06:00;;;;;;;33.97;14.82;;;;;;;7.04;77.90;100586.81;5087890;28;20507;-32
2022/11/02 05:08:26;;;;;;;42.33;19.00;;;;;;;6.81;75.63;100595.66;5087848;28;20043;-27
2022/11/02 05:10:56;;;;;;;39.10;17.25;;;;;;;6.77;75.19;100589.06;5088131;28;20044;-27
2022/11/02 05:13:23;;;;;;;38.58;18.52;;;;;;;6.88;75.25;100592.28;5069629;28;20059;-27
2022/11/02 05:15:49;;;;;;;38.08;18.23;;;;;;;7.02;74.25;100599.44;5069321;28;20085;-28
2022/11/02 05:18:14;;;;;;;44.33;20.02;;;;;;;7.26;73.24;100589.56;5069371;28;20036;-27
2022/11/02 05:20:40;;;;;;;66.40;27.27;;;;;;;7.44;71.87;100587.34;5087436;28;20106;-29
2022/11/02 05:23:06;;;;;;;79.30;41.35;;;;;;;7.79;72.39;100611.44;5087659;28;20028;-29
2022/11/02 05:25:32;;;;;;;76.95;34.17;;;;;;;7.71;73.24;100608.91;5087662;28;20035;-27
2022/11/02 05:27:57;;;;;;;69.15;33.67;;;;;;;7.22;76.31;100607.66;5086800;28;20056;-27
2022/11/02 05:30:23;;;;;;;67.78;35.65;;;;;;;7.12;76.74;100607.94;5087332;28;20036;-27
2022/11/02 05:32:48;;;;;;;71.32;33.08;;;;;;;7.44;75.20;100582.03;5087556;28;20020;-26
2022/11/02 05:35:14;;;;;;;40.22;23.35;;;;;;;7.76;75.96;100617.09;5069317;28;20020;-27
2022/11/02 05:37:40;;;;;;;42.95;22.67;;;;;;;7.58;76.51;100610.38;5087960;28;20107;-28
2022/11/02 05:40:07;;;;;;;38.08;20.67;;;;;;;7.55;77.63;100608.09;5087362;28;20036;-27
2022/11/02 05:42:33;;;;;;;27.50;15.75;;;;;;;8.15;76.15;100618.53;5087104;28;20035;-28
2022/11/02 05:44:58;;;;;;;24.70;13.55;;;;;;;8.31;75.49;100618.28;5087365;28;20028;-32
2022/11/02 05:47:23;;;;;;;26.00;14.10;;;;;;;8.41;75.15;100624.13;5087570;28;20545;-30
2022/11/02 05:49:49;;;;;;;26.75;13.77;;;;;;;8.37;75.95;100622.84;5087218;28;20043;-29
2022/11/02 05:52:14;;;;;;;23.77;13.95;;;;;;;8.56;75.14;100617.91;5087335;28;20024;-27
2022/11/02 05:54:40;;;;;;;25.40;13.73;;;;;;;8.32;76.70;100606.66;5086909;28;20415;-27
2022/11/02 05:57:05;;;;;;;22.85;13.82;;;;;;;8.67;75.55;100609.44;5087057;28;20519;-28
2022/11/02 05:59:31;;;;;;;28.55;15.77;;;;;;;8.56;76.31;100626.75;5087255;28;20518;-26
2022/11/02 06:01:56;;;;;;;40.55;22.05;;;;;;;8.30;78.14;100629.94;5087063;28;20248;-28
2022/11/02 06:04:22;;;;;;;55.22;27.27;;;;;;;8.39;78.22;100630.63;5087174;28;20044;-26
2022/11/02 06:06:47;;;;;;;94.97;46.90;;;;;;;8.34;78.16;100623.25;5086895;28;20052;-28
2022/11/02 06:09:13;;;;;;;114.93;61.58;;;;;;;8.30;77.69;100607.88;5087055;28;20027;-26
2022/11/02 06:11:38;;;;;;;147.90;69.20;;;;;;;8.44;78.00;100626.44;5087115;28;20028;-27
2022/11/02 06:14:04;;;;;;;138.15;67.63;;;;;;;8.92;76.16;100624.97;5068417;28;20377;-29
2022/11/02 06:16:30;;;;;;;98.00;49.17;;;;;;;9.36;75.15;100618.47;5086327;28;20476;-28
2022/11/02 06:18:56;;;;;;;114.88;55.25;;;;;;;9.44;75.38;100620.97;5086865;28;20020;-27
2022/11/02 06:21:21;;;;;;;93.05;46.45;;;;;;;9.87;74.08;100615.41;5087170;28;20028;-29
2022/11/02 06:23:47;;;;;;;38.22;21.27;;;;;;;10.18;73.90;100630.03;5087113;28;20504;-27
2022/11/02 06:26:13;;;;;;;24.65;14.60;;;;;;;10.34;74.30;100632.34;5086678;28;20031;-31
2022/11/02 06:28:38;;;;;;;43.38;14.52;;;;;;;10.36;73.62;100610.78;5086368;28;20077;-28
2022/11/02 06:31:04;;;;;;;23.58;12.65;;;;;;;10.62;72.91;100607.31;5086513;28;20032;-27
2022/11/02 06:33:29;;;;;;;22.35;12.73;;;;;;;10.94;72.28;100626.16;5086649;28;20028;-30
2022/11/02 06:35:55;;;;;;;21.73;12.88;;;;;;;11.18;72.05;100635.38;5085472;28;20032;-28
2022/11/02 06:38:21;;;;;;;24.85;13.23;;;;;;;11.25;71.53;100634.31;5087487;28;20032;-27
2022/11/02 06:40:54;;;;;;;20.48;13.07;;;;;;;11.41;71.87;100638.38;5090668;28;20103;-27
2022/11/02 06:43:20;;;;;;;21.40;13.30;;;;;;;11.50;71.60;100636.28;5072737;28;20097;-31
2022/11/02 06:45:45;;;;;;;23.20;13.73;;;;;;;11.51;71.86;100627.25;5090913;28;20040;-28
2022/11/02 06:48:11;;;;;;;27.40;14.02;;;;;;;11.78;71.17;100627.16;5090858;28;20044;-31
2022/11/02 06:50:36;;;;;;;23.58;13.68;;;;;;;11.91;70.89;100624.44;5090332;28;20510;-28
2022/11/02 06:53:02;;;;;;;24.95;14.45;;;;;;;12.24;69.86;100632.25;5090724;28;20553;-30
2022/11/02 06:55:27;;;;;;;22.83;14.13;;;;;;;12.29;69.90;100614.75;5090558;28;20465;-28
2022/11/02 06:57:53;;;;;;;22.33;13.68;;;;;;;12.38;69.27;100602.75;5090223;28;20419;-29
2022/11/02 07:00:19;;;;;;;25.52;13.23;;;;;;;12.55;69.21;100605.72;5090295;28;20028;-28
2022/11/02 07:02:45;;;;;;;23.52;13.02;;;;;;;12.55;69.65;100617.22;5072231;28;20492;-29
2022/11/02 07:05:11;;;;;;;23.27;13.38;;;;;;;12.74;69.14;100606.56;5090416;28;20064;-30
2022/11/02 07:07:37;;;;;;;22.13;13.00;;;;;;;12.89;68.59;100611.56;5090300;28;20028;-29
2022/11/02 07:10:03;;;;;;;23.38;14.00;;;;;;;12.98;68.74;100607.59;5090416;28;20038;-27
2022/11/02 07:12:32;;;;;;;21.02;13.25;;;;;;;13.02;68.08;100601.56;5089784;28;20547;-27
2022/11/02 07:14:57;;;;;;;28.00;16.58;;;;;;;13.09;68.13;100604.16;5071865;28;20032;-27
2022/11/02 07:17:22;;;;;;;20.65;14.30;;;;;;;13.19;68.18;100590.25;5090455;28;20483;-28
2022/11/02 07:19:48;;;;;;;23.63;14.05;;;;;;;13.51;67.15;100604.34;5089956;28;20028;-27
2022/11/02 07:22:13;;;;;;;29.50;17.38;;;;;;;13.71;66.21;100598.75;5090266;28;20549;-27
2022/11/02 07:24:39;;;;;;;38.75;21.90;;;;;;;13.37;66.26;100602.88;5071319;28;20046;-29
2022/11/02 07:27:04;;;;;;;46.72;28.40;;;;;;;13.41;66.82;100598.69;5089673;28;20032;-28
2022/11/02 07:29:29;;;;;;;54.88;32.97;;;;;;;13.44;66.49;100572.28;5071395;28;20028;-27
2022/11/02 07:31:55;;;;;;;42.50;26.77;;;;;;;13.82;66.07;100589.09;5089923;28;20036;-27
2022/11/02 07:34:20;;;;;;;46.10;27.60;;;;;;;13.91;65.38;100571.63;5089493;28;20114;-27
2022/11/02 07:36:46;;;;;;;28.52;17.63;;;;;;;14.34;63.14;100575.13;5089650;28;20066;-28
2022/11/02 07:39:11;;;;;;;38.75;24.55;;;;;;;14.27;63.45;100569.88;5071374;28;20073;-28
2022/11/02 07:41:37;;;;;;;29.55;19.88;;;;;;;14.38;63.14;100585.16;5089519;28;20111;-27
2022/11/02 07:44:02;;;;;;;31.13;16.45;;;;;;;14.32;62.64;100564.63;5089924;28;20028;-27
2022/11/02 07:46:28;;;;;;;22.48;13.60;;;;;;;14.28;62.62;100576.84;5071124;28;20566;-29
2022/11/02 07:48:53;;;;;;;22.98;15.57;;;;;;;14.28;63.15;100555.38;5089390;28;20028;-27
2022/11/02 07:51:18;;;;;;;37.85;20.33;;;;;;;14.65;61.90;100576.72;5088518;28;20028;-31
2022/11/02 07:53:44;;;;;;;24.98;16.35;;;;;;;14.73;62.00;100568.31;5089496;28;20031;-29
2022/11/02 07:56:10;;;;;;;18.42;12.15;;;;;;;15.14;61.37;100562.97;5070869;28;20034;-27
2022/11/02 07:58:36;;;;;;;22.98;12.98;;;;;;;15.25;59.46;100560.28;5088911;28;20032;-28
2022/11/02 08:01:01;;;;;;;19.98;11.30;;;;;;;15.42;60.05;100563.03;5089997;28;20081;-27
2022/11/02 08:03:28;;;;;;;56.83;35.22;;;;;;;15.44;59.37;100558.22;5089241;28;20047;-28
2022/11/02 08:05:53;;;;;;;19.70;12.60;;;;;;;15.85;58.03;100558.22;5089202;28;20052;-28
2022/11/02 08:08:21;;;;;;;22.38;15.27;;;;;;;15.80;58.52;100544.69;5088895;28;20024;-29
2022/11/02 08:10:48;;;;;;;41.43;24.07;;;;;;;15.89;57.83;100553.97;5070801;28;20040;-27
2022/11/02 08:13:19;;;;;;;111.80;64.10;;;;;;;15.98;57.42;100544.47;5089062;28;20548;-28
2022/11/02 08:15:48;;;;;;;18.73;11.77;;;;;;;16.32;56.40;100538.28;5070809;28;20036;-29
2022/11/02 08:18:16;;;;;;;31.90;19.10;;;;;;;16.82;55.32;100561.69;5070647;28;20107;-30
2022/11/02 08:20:42;;;;;;;;;;;;;;;16.95;54.47;100565.88;5089444;28;20040;-30
2022/11/02 08:23:09;;;;;;;23.95;10.00;;;;;;;16.90;54.20;100555.03;5088979;28;19926;-28
2022/11/02 08:25:34;;;;;;;108.78;56.58;;;;;;;17.01;54.48;100543.34;5088556;28;20036;-27
2022/11/02 08:28:00;;;;;;;17.65;9.35;;;;;;;17.09;52.53;100524.03;5088964;28;20028;-27
2022/11/02 08:30:27;;;;;;;19.23;10.10;;;;;;;17.20;53.66;100531.19;5088373;28;20063;-28
2022/11/02 08:32:53;;;;;;;16.13;8.88;;;;;;;17.54;52.43;100514.84;5070748;28;20028;-27
2022/11/02 08:35:19;;;;;;;15.20;8.50;;;;;;;17.92;51.02;100528.44;5088607;28;20498;-27
2022/11/02 08:37:44;;;;;;;16.80;8.38;;;;;;;18.07;50.87;100513.19;5088562;28;20089;-27
2022/11/02 08:40:10;;;;;;;16.48;9.13;;;;;;;18.33;50.28;100532.28;5088391;28;20118;-28
2022/11/02 08:42:37;;;;;;;16.55;7.85;;;;;;;18.53;49.52;100520.00;5070185;28;20099;-27
2022/11/02 08:45:05;;;;;;;16.80;8.13;;;;;;;18.78;48.19;100498.53;5088396;28;20024;-28
2022/11/02 08:47:30;;;;;;;15.63;6.93;;;;;;;18.93;48.32;100518.63;5088415;28;20028;-28
2022/11/02 08:49:56;;;;;;;15.15;6.43;;;;;;;18.93;47.54;100511.31;5088304;28;20023;-29
2022/11/02 08:52:21;;;;;;;13.93;5.97;;;;;;;19.19;46.43;100495.22;5088169;28;20097;-27
2022/11/02 08:54:47;;;;;;;12.38;5.95;;;;;;;19.45;46.16;100509.59;5088032;28;21010;-28
2022/11/02 08:57:12;;;;;;;15.93;6.93;;;;;;;19.66;45.52;100503.16;5088008;28;20038;-27
2022/11/02 08:59:37;;;;;;;15.30;6.43;;;;;;;19.67;45.38;100501.25;5069851;28;20027;-28
2022/11/02 09:02:03;;;;;;;18.08;7.22;;;;;;;19.89;45.09;100506.44;5088054;28;20497;-28
2022/11/02 09:04:28;;;;;;;15.32;6.68;;;;;;;20.13;43.99;100503.22;5087967;28;20032;-27
2022/11/02 09:06:54;;;;;;;8.27;4.65;;;;;;;20.09;42.70;100485.91;5087659;28;20060;-28
2022/11/02 09:09:19;;;;;;;17.00;5.20;;;;;;;20.45;42.60;100484.75;5087979;28;20028;-27
2022/11/02 09:11:44;;;;;;;15.70;5.55;;;;;;;20.81;41.62;100503.63;5086767;28;20031;-28
2022/11/02 09:14:10;;;;;;;18.65;5.68;;;;;;;20.71;41.88;100492.81;5069457;28;20438;-27
2022/11/02 09:16:35;;;;;;;12.73;5.03;;;;;;;20.76;40.87;100478.44;5087593;28;20036;-28
2022/11/02 09:19:01;;;;;;;17.52;8.13;;;;;;;20.75;41.18;100496.59;5087776;28;20047;-28
2022/11/02 09:21:26;;;;;;;11.07;5.15;;;;;;;20.92;40.89;100492.75;5087576;28;20540;-28
2022/11/02 09:23:51;;;;;;;11.98;5.10;;;;;;;20.90;41.42;100473.25;5087506;28;20148;-29
2022/11/02 09:26:17;;;;;;;12.07;5.32;;;;;;;21.25;40.51;100469.56;5069099;28;20036;-28
2022/11/02 09:28:42;;;;;;;11.60;5.32;;;;;;;21.30;40.30;100460.56;5087640;28;20120;-28
2022/11/02 09:31:08;;;;;;;12.80;5.53;;;;;;;21.56;38.72;100470.19;5087568;28;20119;-32
2022/11/02 09:33:35;;;;;;;15.05;5.20;;;;;;;21.77;38.97;100470.03;5069420;28;20036;-28
2022/11/02 09:36:04;;;;;;;10.27;4.70;;;;;;;21.88;38.48;100463.41;5087356;28;20024;-27
2022/11/02 09:38:30;;;;;;;14.80;6.22;;;;;;;22.26;37.97;100458.22;5087014;28;20719;-29
2022/11/02 09:41:06;;;;;;;14.18;5.03;;;;;;;22.17;36.76;100452.56;5087421;28;20028;-28
2022/11/02 09:43:48;;;;;;;14.60;5.20;;;;;;;22.13;37.07;100456.97;5087459;28;20039;-29
2022/11/02 09:46:30;;;;;;;24.63;5.57;;;;;;;22.28;37.75;100442.44;5085685;28;20059;-27
2022/11/02 09:49:04;;;;;;;14.18;4.60;;;;;;;22.48;36.49;100448.75;5087093;28;20055;-31
2022/11/02 09:51:32;;;;;;;13.48;5.22;;;;;;;;;;5077243;28;20404;-28
2022/11/02 09:54:21;;;;;;;11.68;5.50;;;;;;;22.70;35.57;100446.31;5087104;28;20103;-27
2022/11/02 09:56:49;;;;;;;15.65;5.47;;;;;;;22.97;35.37;100442.16;5087346;28;20066;-28
2022/11/02 09:59:20;;;;;;;13.65;5.63;;;;;;;23.02;35.90;100439.41;5085575;28;20027;-31
2022/11/02 10:02:01;;;;;;;14.43;6.13;;;;;;;23.15;34.86;100433.25;5087227;28;20484;-28
2022/11/02 10:04:38;;;;;;;14.10;5.68;;;;;;;23.38;34.67;100438.91;5086881;28;20040;-30
2022/11/02 10:07:22;;;;;;;12.82;5.05;;;;;;;23.44;34.73;100429.53;5086947;28;20090;-29
2022/11/02 10:09:55;;;;;;;12.85;5.85;;;;;;;23.30;35.03;100431.41;5087097;28;20111;-28
2022/11/02 10:12:52;;;;;;;16.20;5.50;;;;;;;24.00;34.07;100427.81;5086829;28;20094;-28
2022/11/02 10:15:24;;;;;;;12.90;5.53;;;;;;;24.38;33.71;100414.84;5086911;28;20123;-28
2022/11/02 10:17:55;;;;;;;13.05;5.00;;;;;;;24.21;33.39;100401.00;5068563;28;20044;-29
2022/11/02 10:20:33;;;;;;;13.05;5.07;;;;;;;24.45;34.05;100400.78;5086535;28;20529;-27
2022/11/02 10:23:05;;;;;;;13.38;4.93;;;;;;;24.66;32.78;100407.50;5087102;28;20547;-29
2022/11/02 10:25:32;;;;;;;15.77;5.20;;;;;;;25.12;32.70;100383.03;5068788;28;20031;-27
2022/11/02 10:28:09;;;;;;;12.43;5.35;;;;;;;25.16;32.28;100390.28;5087026;28;20039;-27
2022/11/02 10:30:36;;;;;;;17.70;5.70;;;;;;;25.09;32.08;100389.09;5086658;28;20395;-28
2022/11/02 10:33:11;;;;;;;12.37;5.20;;;;;;;25.28;32.41;100383.50;5087040;28;20286;-28
2022/11/02 10:35:58;;;;;;;14.23;5.07;;;;;;;25.39;31.78;100382.13;5086989;28;20031;-33
2022/11/02 10:39:01;;;;;;;14.80;5.32;;;;;;;25.65;32.25;100380.38;5068484;28;20028;-33
2022/11/02 10:41:54;;;;;;;11.80;5.05;;;;;;;25.82;31.74;100373.38;5086681;28;20024;-28
2022/11/02 10:44:46;;;;;;;12.50;5.78;;;;;;;26.28;30.94;100372.16;5086531;28;20032;-29
2022/11/02 10:47:21;;;;;;;13.05;5.07;;;;;;;26.17;30.38;100368.09;5070099;28;20040;-27
2022/11/02 10:50:05;;;;;;;10.90;5.03;;;;;;;26.31;31.06;100366.06;5086524;28;20067;-30
2022/11/02 10:52:40;;;;;;;16.05;5.70;;;;;;;26.26;30.46;100345.13;5086741;28;20028;-28
2022/11/02 10:55:12;;;;;;;45.15;7.28;;;;;;;26.39;30.61;100357.06;5086640;28;20060;-28
2022/11/02 10:57:38;;;;;;;13.43;5.43;;;;;;;26.68;30.58;100361.16;5086609;28;20032;-29
2022/11/02 11:00:22;;;;;;;15.68;5.43;;;;;;;26.79;30.07;100357.00;5086798;28;20071;-29
2022/11/02 11:03:15;;;;;;;15.27;5.40;;;;;;;26.95;29.75;100342.84;5086351;28;20032;-27
2022/11/02 11:05:49;;;;;;;13.65;4.47;;;;;;;26.77;30.60;100340.09;5084350;28;20571;-28
2022/11/02 11:08:24;;;;;;;20.33;6.10;;;;;;;27.13;30.81;100333.47;5068096;28;20039;-31
2022/11/02 11:10:49;;;;;;;13.95;4.65;;;;;;;26.99;28.54;100327.38;5086501;28;20629;-28
2022/11/02 11:13:22;;;;;;;10.02;4.38;;;;;;;26.41;31.71;100318.47;5086301;28;20113;-30
2022/11/02 11:15:51;;;;;;;13.13;4.68;;;;;;;27.39;29.63;100329.94;5086424;28;20039;-28
2022/11/02 11:18:20;;;;;;;13.48;4.57;;;;;;;27.30;29.47;100321.75;5086065;28;20420;-29
2022/11/02 11:20:46;;;;;;;16.52;4.53;;;;;;;27.54;28.55;100323.91;5084866;28;20036;-29
2022/11/02 11:23:24;;;;;;;12.95;4.80;;;;;;;27.44;27.99;100299.63;5086691;28;20024;-30
2022/11/02 11:26:05;;;;;;;10.75;4.53;;;;;;;27.59;28.34;100312.81;5088173;28;20028;-29
2022/11/02 11:28:41;;;;;;;14.75;4.32;;;;;;;27.97;27.88;100295.59;5089708;28;20547;-32
2022/11/02 11:31:11;;;;;;;12.73;3.83;;;;;;;28.20;27.32;100292.56;5089800;28;20032;-30
2022/11/02 11:33:42;;;;;;;18.50;4.57;;;;;;;28.52;27.22;100309.47;5089733;28;20397;-29
2022/11/02 11:36:10;;;;;;;11.45;4.15;;;;;;;28.85;26.41;100295.78;5089708;28;20032;-28
2022/11/02 11:38:35;;;;;;;;;;;;;;;28.72;25.88;100297.69;5071730;28;20586;-29
2022/11/02 11:41:02;;;;;;;13.07;4.68;;;;;;;28.59;25.98;100298.78;5089823;28;19947;-30